createdAt,value
2022-12-24T00:02:24.090Z,0.80
2022-12-24T00:04:55.672Z,1.30
2022-12-24T00:07:28.282Z,1.40
2022-12-24T00:09:56.179Z,1.23
2022-12-24T00:12:24.815Z,0.87
2022-12-24T00:14:52.715Z,0.80
2022-12-24T00:17:22.036Z,1.00
2022-12-24T00:19:49.897Z,1.07
2022-12-24T00:22:18.512Z,1.00
2022-12-24T00:24:46.392Z,1.07
2022-12-24T00:27:14.518Z,1.03
2022-12-24T00:29:42.367Z,1.03
2022-12-24T00:32:10.657Z,0.90
2022-12-24T00:34:40.166Z,1.23
2022-12-24T00:37:09.130Z,1.00
2022-12-24T00:39:37.472Z,1.10
2022-12-24T00:42:05.645Z,1.00
2022-12-24T00:44:33.534Z,1.10
2022-12-24T00:47:03.467Z,0.90
2022-12-24T00:49:34.668Z,1.30
2022-12-24T00:52:04.265Z,1.40
2022-12-24T00:54:32.328Z,1.50
2022-12-24T00:57:00.201Z,1.27
2022-12-24T00:59:28.055Z,1.20
2022-12-24T01:01:56.023Z,1.07
2022-12-24T01:04:41.374Z,1.37
2022-12-24T01:07:10.629Z,1.17
2022-12-24T01:09:38.488Z,0.90
2022-12-24T01:12:06.530Z,1.73
2022-12-24T01:14:34.453Z,1.23
2022-12-24T01:17:02.288Z,1.00
2022-12-24T01:19:30.161Z,0.90
2022-12-24T01:21:59.195Z,1.77
2022-12-24T01:24:28.996Z,1.17
2022-12-24T01:26:56.855Z,1.10
2022-12-24T01:29:24.758Z,0.87
2022-12-24T01:31:52.731Z,1.00
2022-12-24T01:34:20.587Z,1.53
2022-12-24T01:36:48.444Z,1.33
2022-12-24T01:39:16.328Z,1.27
2022-12-24T01:42:02.844Z,1.20
2022-12-24T01:44:36.462Z,1.57
2022-12-24T01:47:11.556Z,1.63
2022-12-24T01:49:42.270Z,1.37
2022-12-24T01:52:14.067Z,1.30
2022-12-24T01:54:45.182Z,1.40
2022-12-24T01:57:19.833Z,1.10
2022-12-24T01:59:51.533Z,1.50
2022-12-24T02:02:20.378Z,1.10
2022-12-24T02:04:55.753Z,1.37
2022-12-24T02:07:23.871Z,1.33
2022-12-24T02:09:57.184Z,1.10
2022-12-24T02:12:27.548Z,1.10
2022-12-24T02:14:56.077Z,1.27
2022-12-24T02:17:31.506Z,1.40
2022-12-24T02:20:34.777Z,1.30
2022-12-24T02:23:27.482Z,1.40
2022-12-24T02:26:08.397Z,0.90
2022-12-24T02:28:54.693Z,1.30
2022-12-24T02:31:28.745Z,1.67
2022-12-24T02:34:03.304Z,1.07
2022-12-24T02:36:36.172Z,1.47
2022-12-24T02:39:07.346Z,1.83
2022-12-24T02:41:51.817Z,1.30
2022-12-24T02:44:23.454Z,1.30
2022-12-24T02:46:54.211Z,1.77
2022-12-24T02:49:22.238Z,1.50
2022-12-24T02:51:50.049Z,1.17
2022-12-24T02:54:19.039Z,1.60
2022-12-24T02:57:00.935Z,1.63
2022-12-24T02:59:58.535Z,1.63
2022-12-24T03:02:42.246Z,1.40
2022-12-24T03:05:19.778Z,1.90
2022-12-24T03:07:59.767Z,1.77
2022-12-24T03:10:34.051Z,1.43
2022-12-24T03:13:07.063Z,1.10
2022-12-24T03:15:35.954Z,1.47
2022-12-24T03:18:08.481Z,2.27
2022-12-24T03:20:39.542Z,1.40
2022-12-24T03:23:07.864Z,1.63
2022-12-24T03:25:39.590Z,1.80
2022-12-24T03:28:10.568Z,1.80
2022-12-24T03:30:40.945Z,1.70
2022-12-24T03:33:10.429Z,1.70
2022-12-24T03:35:38.252Z,1.37
2022-12-24T03:38:07.139Z,1.63
2022-12-24T03:40:34.992Z,2.07
2022-12-24T03:43:03.345Z,4.73
2022-12-24T03:45:31.275Z,2.40
2022-12-24T03:47:59.128Z,1.97
2022-12-24T03:50:28.299Z,2.03
2022-12-24T03:52:56.795Z,1.70
2022-12-24T03:55:24.645Z,1.83
2022-12-24T03:57:52.595Z,1.80
2022-12-24T04:00:21.485Z,1.60
2022-12-24T04:02:49.656Z,1.80
2022-12-24T04:05:20.337Z,2.97
2022-12-24T04:07:49.802Z,2.53
2022-12-24T04:10:17.953Z,2.80
2022-12-24T04:12:45.827Z,2.80
2022-12-24T04:15:13.653Z,2.00
2022-12-24T04:17:41.443Z,2.00
2022-12-24T04:20:10.467Z,1.70
2022-12-24T04:22:38.308Z,2.20
2022-12-24T04:25:09.112Z,2.50
2022-12-24T04:27:36.972Z,2.03
2022-12-24T04:30:05.859Z,1.67
2022-12-24T04:32:33.709Z,2.13
2022-12-24T04:35:01.527Z,1.77
2022-12-24T04:37:29.350Z,2.00
2022-12-24T04:39:57.197Z,1.93
2022-12-24T04:42:26.393Z,2.00
2022-12-24T04:44:54.249Z,2.23
2022-12-24T04:47:22.431Z,1.90
2022-12-24T04:49:50.569Z,1.63
2022-12-24T04:52:18.496Z,2.20
2022-12-24T04:54:46.278Z,2.57
2022-12-24T04:57:14.129Z,1.53
2022-12-24T04:59:43.343Z,1.43
2022-12-24T05:02:11.821Z,2.03
2022-12-24T05:04:39.981Z,1.93
2022-12-24T05:07:07.824Z,1.80
2022-12-24T05:09:35.823Z,1.50
2022-12-24T05:12:03.825Z,1.30
2022-12-24T05:14:31.679Z,1.70
2022-12-24T05:17:00.978Z,1.60
2022-12-24T05:19:28.998Z,1.30
2022-12-24T05:22:10.743Z,1.60
2022-12-24T05:24:56.059Z,3.20
2022-12-24T05:27:24.042Z,2.10
2022-12-24T05:29:51.951Z,1.17
2022-12-24T05:32:21.185Z,1.50
2022-12-24T05:34:48.983Z,1.20
2022-12-24T05:37:16.775Z,1.40
2022-12-24T05:39:44.671Z,1.40
2022-12-24T05:42:12.558Z,1.83
2022-12-24T05:44:40.399Z,1.40
2022-12-24T05:47:08.271Z,1.73
2022-12-24T05:49:37.460Z,1.80
2022-12-24T05:52:06.080Z,1.80
2022-12-24T05:54:33.889Z,2.00
2022-12-24T05:57:01.739Z,1.63
2022-12-24T05:59:30.069Z,1.67
2022-12-24T06:01:58.118Z,1.83
2022-12-24T06:04:29.000Z,1.47
2022-12-24T06:06:58.677Z,1.67
2022-12-24T06:09:26.567Z,1.80
2022-12-24T06:11:54.437Z,1.70
2022-12-24T06:14:22.289Z,1.57
2022-12-24T06:16:50.101Z,1.80
2022-12-24T06:19:17.937Z,1.40
2022-12-24T06:21:45.743Z,2.80
2022-12-24T06:24:15.477Z,1.67
2022-12-24T06:26:43.329Z,1.73
2022-12-24T06:29:11.667Z,2.43
2022-12-24T06:31:39.757Z,2.13
2022-12-24T06:34:07.715Z,1.93
2022-12-24T06:36:35.609Z,1.40
2022-12-24T06:39:03.465Z,1.73
2022-12-24T06:41:32.913Z,3.90
2022-12-24T06:44:01.087Z,2.10
2022-12-24T06:46:29.407Z,1.43
2022-12-24T06:48:57.221Z,2.13
2022-12-24T06:51:25.015Z,1.67
2022-12-24T06:53:53.354Z,2.43
2022-12-24T06:56:22.258Z,1.70
2022-12-24T06:58:51.532Z,1.70
2022-12-24T07:01:21.604Z,1.63
2022-12-24T07:03:49.768Z,1.93
2022-12-24T07:06:21.028Z,5.53
2022-12-24T07:08:49.013Z,3.47
2022-12-24T07:11:17.269Z,2.27
2022-12-24T07:13:45.185Z,2.10
2022-12-24T07:16:14.491Z,2.47
2022-12-24T07:18:42.469Z,2.10
2022-12-24T07:21:10.875Z,2.40
2022-12-24T07:23:38.767Z,2.00
2022-12-24T07:26:08.427Z,2.10
2022-12-24T07:28:36.286Z,1.87
2022-12-24T07:31:04.473Z,1.53
2022-12-24T07:33:33.746Z,2.37
2022-12-24T07:36:03.111Z,1.97
2022-12-24T07:38:31.456Z,1.87
2022-12-24T07:40:59.653Z,2.50
2022-12-24T07:43:28.889Z,2.80
2022-12-24T07:45:58.301Z,2.20
2022-12-24T07:48:27.565Z,1.90
2022-12-24T07:50:57.139Z,1.90
2022-12-24T07:53:26.017Z,2.77
2022-12-24T07:55:54.971Z,2.37
2022-12-24T07:58:23.187Z,2.47
2022-12-24T08:00:55.976Z,2.67
2022-12-24T08:03:24.230Z,2.93
2022-12-24T08:05:53.632Z,3.00
2022-12-24T08:08:22.891Z,2.70
2022-12-24T08:10:50.750Z,2.20
2022-12-24T08:13:18.633Z,2.00
2022-12-24T08:15:46.826Z,3.60
2022-12-24T08:18:14.661Z,3.53
2022-12-24T08:20:42.860Z,2.80
2022-12-24T08:23:10.867Z,2.00
2022-12-24T08:25:43.772Z,2.03
2022-12-24T08:28:12.229Z,1.40
2022-12-24T08:30:40.089Z,1.90
2022-12-24T08:33:08.005Z,1.63
2022-12-24T08:35:35.869Z,2.60
2022-12-24T08:38:03.884Z,2.20
2022-12-24T08:40:31.727Z,1.90
2022-12-24T08:43:02.760Z,1.57
2022-12-24T08:45:36.181Z,2.53
2022-12-24T08:48:08.011Z,2.70
2022-12-24T08:50:36.103Z,2.00
2022-12-24T08:53:03.935Z,2.83
2022-12-24T08:55:31.760Z,2.97
2022-12-24T08:58:01.187Z,1.90
2022-12-24T09:00:29.186Z,2.57
2022-12-24T09:02:57.778Z,1.87
2022-12-24T09:05:25.997Z,2.10
2022-12-24T09:07:57.833Z,2.20
2022-12-24T09:10:26.393Z,3.10
2022-12-24T09:12:54.244Z,2.67
2022-12-24T09:15:23.419Z,2.30
2022-12-24T09:17:51.204Z,2.57
2022-12-24T09:20:19.200Z,1.97
2022-12-24T09:22:47.017Z,2.80
2022-12-24T09:25:14.878Z,2.67
2022-12-24T09:27:42.738Z,2.53
2022-12-24T09:30:11.813Z,2.40
2022-12-24T09:32:41.006Z,2.90
2022-12-24T09:35:09.508Z,1.70
2022-12-24T09:37:38.912Z,2.20
2022-12-24T09:40:08.085Z,2.40
2022-12-24T09:42:49.702Z,3.33
2022-12-24T09:45:21.051Z,3.63
2022-12-24T09:47:54.667Z,2.93
2022-12-24T09:50:33.752Z,2.80
2022-12-24T09:53:05.710Z,2.50
2022-12-24T09:55:37.925Z,2.17
2022-12-24T09:58:07.838Z,2.50
2022-12-24T10:00:38.635Z,2.03
2022-12-24T10:03:15.776Z,2.33
2022-12-24T10:05:48.829Z,2.23
2022-12-24T10:08:26.737Z,2.13
2022-12-24T10:10:56.459Z,2.63
2022-12-24T10:13:39.106Z,2.33
2022-12-24T10:16:16.170Z,2.33
2022-12-24T10:18:52.900Z,2.50
2022-12-24T10:21:30.542Z,2.30
2022-12-24T10:24:06.655Z,1.93
2022-12-24T10:26:40.516Z,1.80
2022-12-24T10:29:16.741Z,2.17
2022-12-24T10:31:55.352Z,2.13
2022-12-24T10:34:26.226Z,2.07
2022-12-24T10:36:54.027Z,2.33
2022-12-24T10:39:25.462Z,2.90
2022-12-24T10:41:57.875Z,2.57
2022-12-24T10:44:29.274Z,1.97
2022-12-24T10:46:57.982Z,2.70
2022-12-24T10:49:33.799Z,2.10
2022-12-24T10:52:06.544Z,1.90
2022-12-24T10:54:39.465Z,2.90
2022-12-24T10:57:26.458Z,4.03
2022-12-24T10:59:56.168Z,2.10
2022-12-24T11:02:30.112Z,2.13
2022-12-24T11:05:00.748Z,1.80
2022-12-24T11:07:29.979Z,2.00
2022-12-24T11:09:59.377Z,2.20
2022-12-24T11:12:30.460Z,1.80
2022-12-24T11:15:05.439Z,2.07
2022-12-24T11:17:34.167Z,2.13
2022-12-24T11:20:04.453Z,2.40
2022-12-24T11:22:33.768Z,2.73
2022-12-24T11:25:05.477Z,2.80
2022-12-24T11:27:41.742Z,3.23
2022-12-24T11:30:26.199Z,2.50
2022-12-24T11:33:21.931Z,2.47
2022-12-24T11:36:01.628Z,5.83
2022-12-24T11:38:31.203Z,3.60
2022-12-24T11:41:05.218Z,2.47
2022-12-24T11:43:47.814Z,15.07
2022-12-24T11:46:37.752Z,12.40
2022-12-24T11:49:08.681Z,7.37
2022-12-24T11:51:40.046Z,9.07
2022-12-24T11:54:14.062Z,4.30
2022-12-24T11:56:45.880Z,7.60
2022-12-24T11:59:20.158Z,6.03
2022-12-24T12:01:56.266Z,2.00
2022-12-24T12:04:29.769Z,2.83
2022-12-24T12:07:02.915Z,3.17
2022-12-24T12:09:34.620Z,4.10
2022-12-24T12:12:08.729Z,3.07
2022-12-24T12:14:40.790Z,2.73
2022-12-24T12:17:19.937Z,2.30
2022-12-24T12:19:54.328Z,2.23
2022-12-24T12:22:30.235Z,2.33
2022-12-24T12:25:00.937Z,1.90
2022-12-24T12:27:33.491Z,2.17
2022-12-24T12:30:04.063Z,2.03
2022-12-24T12:32:43.552Z,2.63
2022-12-24T12:35:22.381Z,2.90
2022-12-24T12:37:58.234Z,2.57
2022-12-24T12:40:42.621Z,2.40
2022-12-24T12:43:24.823Z,2.40
2022-12-24T12:45:59.335Z,6.03
2022-12-24T12:48:46.666Z,6.87
2022-12-24T12:51:23.121Z,18.43
2022-12-24T12:54:16.008Z,6.67
2022-12-24T12:56:48.745Z,6.53
2022-12-24T12:59:21.735Z,6.97
2022-12-24T13:02:02.605Z,8.30
2022-12-24T13:04:54.059Z,3.00
2022-12-24T13:07:52.968Z,3.60
2022-12-24T13:10:45.164Z,15.30
2022-12-24T13:13:36.193Z,15.27
2022-12-24T13:16:22.920Z,6.63
2022-12-24T13:19:05.393Z,12.20
2022-12-24T13:21:34.195Z,4.63
2022-12-24T13:24:17.690Z,4.43
2022-12-24T13:27:04.887Z,2.70
2022-12-24T13:29:43.388Z,2.80
2022-12-24T13:32:51.297Z,5.13
2022-12-24T13:35:56.992Z,4.30
2022-12-24T13:38:34.062Z,9.40
2022-12-24T13:41:41.823Z,3.37
2022-12-24T13:44:19.871Z,5.80
2022-12-24T13:46:49.980Z,3.83
2022-12-24T13:49:22.656Z,6.13
2022-12-24T13:51:51.214Z,3.47
2022-12-24T13:54:25.531Z,3.40
2022-12-24T13:56:53.467Z,8.50
2022-12-24T13:59:38.901Z,6.87
2022-12-24T14:02:20.280Z,7.77
2022-12-24T14:04:52.723Z,5.87
2022-12-24T14:07:21.791Z,5.10
2022-12-24T14:09:52.060Z,4.20
2022-12-24T14:12:46.634Z,2.53
2022-12-24T14:16:00.503Z,3.57
2022-12-24T14:18:31.744Z,5.00
2022-12-24T14:21:01.337Z,3.63
2022-12-24T14:23:42.451Z,3.77
2022-12-24T14:26:16.468Z,9.50
2022-12-24T14:28:47.646Z,8.93
2022-12-24T14:31:18.050Z,6.70
2022-12-24T14:33:47.488Z,5.67
2022-12-24T14:36:19.598Z,5.97
2022-12-24T14:38:47.849Z,5.13
2022-12-24T14:41:38.564Z,4.80
2022-12-24T14:44:17.707Z,4.77
2022-12-24T14:46:51.913Z,3.63
2022-12-24T14:49:33.372Z,2.40
2022-12-24T14:52:30.738Z,9.37
2022-12-24T14:54:56.845Z,13.13
2022-12-24T14:57:26.916Z,16.03
2022-12-24T14:59:56.668Z,8.17
2022-12-24T15:02:27.051Z,4.33
2022-12-24T15:05:08.206Z,8.00
2022-12-24T15:07:43.606Z,7.07
2022-12-24T15:10:31.337Z,6.73
2022-12-24T15:13:04.076Z,10.27
2022-12-24T15:15:32.363Z,13.00
2022-12-24T15:18:01.167Z,18.83
2022-12-24T15:20:31.719Z,13.60
2022-12-24T15:23:00.385Z,7.73
2022-12-24T15:25:31.018Z,5.47
2022-12-24T15:27:59.873Z,5.67
2022-12-24T15:30:30.002Z,6.70
2022-12-24T15:32:59.071Z,4.50
2022-12-24T15:35:45.634Z,4.27
2022-12-24T15:38:26.233Z,3.80
2022-12-24T15:40:55.815Z,4.40
2022-12-24T15:43:24.495Z,5.13
2022-12-24T15:45:53.753Z,7.43
2022-12-24T15:48:25.670Z,7.73
2022-12-24T15:50:58.505Z,6.20
2022-12-24T15:53:29.403Z,6.50
2022-12-24T15:56:05.996Z,11.83
2022-12-24T15:58:36.132Z,10.93
2022-12-24T16:01:20.511Z,9.87
2022-12-24T16:03:58.214Z,21.73
2022-12-24T16:06:28.850Z,29.53
2022-12-24T16:08:59.897Z,21.73
2022-12-24T16:11:34.793Z,13.37
2022-12-24T16:14:12.153Z,14.37
2022-12-24T16:16:42.300Z,12.17
2022-12-24T16:19:19.540Z,10.67
2022-12-24T16:21:53.253Z,11.63
2022-12-24T16:24:23.794Z,12.03
2022-12-24T16:26:51.932Z,13.60
2022-12-24T16:29:20.843Z,13.83
2022-12-24T16:31:52.689Z,15.40
2022-12-24T16:34:24.278Z,13.93
2022-12-24T16:36:53.656Z,13.40
2022-12-24T16:39:28.425Z,17.13
2022-12-24T16:42:15.842Z,26.73
2022-12-24T16:44:44.408Z,13.73
2022-12-24T16:47:14.827Z,16.30
2022-12-24T16:49:42.661Z,35.90
2022-12-24T16:52:17.873Z,21.23
2022-12-24T16:54:45.727Z,9.13
2022-12-24T16:57:13.660Z,8.20
2022-12-24T16:59:41.629Z,7.63
2022-12-24T17:02:15.065Z,6.63
2022-12-24T17:04:43.934Z,5.67
2022-12-24T17:07:12.429Z,4.97
2022-12-24T17:09:41.854Z,4.83
2022-12-24T17:12:10.051Z,5.70
2022-12-24T17:14:39.692Z,5.40
2022-12-24T17:17:07.794Z,5.60
2022-12-24T17:19:35.663Z,5.70
2022-12-24T17:22:03.492Z,5.37
2022-12-24T17:24:31.269Z,5.17
2022-12-24T17:27:00.506Z,4.93
2022-12-24T17:29:28.358Z,5.23
2022-12-24T17:31:56.257Z,5.40
2022-12-24T17:34:24.400Z,5.20
2022-12-24T17:36:52.182Z,4.53
2022-12-24T17:39:25.814Z,4.77
2022-12-24T17:41:57.075Z,4.60
2022-12-24T17:44:26.252Z,4.67
2022-12-24T17:46:54.108Z,4.33
2022-12-24T17:49:21.944Z,4.50
2022-12-24T17:51:49.708Z,5.07
2022-12-24T17:54:17.589Z,6.13
2022-12-24T17:56:45.437Z,4.63
2022-12-24T17:59:14.008Z,4.33
2022-12-24T18:01:43.318Z,3.70
2022-12-24T18:04:11.994Z,3.37
2022-12-24T18:06:43.083Z,9.17
2022-12-24T18:09:15.371Z,11.57
2022-12-24T18:11:43.513Z,10.13
2022-12-24T18:14:13.993Z,8.83
2022-12-24T18:16:44.005Z,6.83
2022-12-24T18:19:13.465Z,4.33
2022-12-24T18:21:42.019Z,4.73
2022-12-24T18:24:11.236Z,4.00
2022-12-24T18:26:39.413Z,5.53
2022-12-24T18:29:08.821Z,3.30
2022-12-24T18:31:37.368Z,3.00
2022-12-24T18:34:09.528Z,3.17
2022-12-24T18:36:37.447Z,3.10
2022-12-24T18:39:06.521Z,3.23
2022-12-24T18:41:35.355Z,3.10
2022-12-24T18:44:03.194Z,2.97
2022-12-24T18:46:33.324Z,3.10
2022-12-24T18:49:02.278Z,2.77
2022-12-24T18:51:34.343Z,3.17
2022-12-24T18:54:03.440Z,2.80
2022-12-24T18:56:32.382Z,2.73
2022-12-24T18:59:02.782Z,3.40
2022-12-24T19:01:32.228Z,3.20
2022-12-24T19:04:00.685Z,3.10
2022-12-24T19:06:29.024Z,2.97
2022-12-24T19:09:00.409Z,3.07
2022-12-24T19:11:31.453Z,2.67
2022-12-24T19:13:59.923Z,2.53
2022-12-24T19:16:28.543Z,2.70
2022-12-24T19:18:56.428Z,3.00
2022-12-24T19:21:27.034Z,2.77
2022-12-24T19:23:55.313Z,3.87
2022-12-24T19:26:24.938Z,3.27
2022-12-24T19:28:53.122Z,3.40
2022-12-24T19:31:22.759Z,2.80
2022-12-24T19:33:52.873Z,3.40
2022-12-24T19:36:22.909Z,3.27
2022-12-24T19:38:50.797Z,3.17
2022-12-24T19:41:20.622Z,3.10
2022-12-24T19:43:52.060Z,2.80
2022-12-24T19:46:21.934Z,4.17
2022-12-24T19:48:51.179Z,4.20
2022-12-24T19:51:19.687Z,3.07
2022-12-24T19:53:48.602Z,3.53
2022-12-24T19:56:17.907Z,3.57
2022-12-24T19:58:46.300Z,3.03
2022-12-24T20:01:17.781Z,3.00
2022-12-24T20:03:47.213Z,2.77
2022-12-24T20:06:16.011Z,2.87
2022-12-24T20:08:43.912Z,2.80
2022-12-24T20:11:14.615Z,3.40
2022-12-24T20:13:43.278Z,2.90
2022-12-24T20:16:13.126Z,2.93
2022-12-24T20:18:42.384Z,3.20
2022-12-24T20:21:12.339Z,2.83
2022-12-24T20:23:41.292Z,5.47
2022-12-24T20:26:13.030Z,5.00
2022-12-24T20:28:41.659Z,3.97
2022-12-24T20:31:14.499Z,2.90
2022-12-24T20:33:45.440Z,3.43
2022-12-24T20:36:15.842Z,3.70
2022-12-24T20:38:44.160Z,3.47
2022-12-24T20:41:13.970Z,3.63
2022-12-24T20:43:47.722Z,3.47
2022-12-24T20:46:17.149Z,3.97
2022-12-24T20:48:46.689Z,3.93
2022-12-24T20:51:23.233Z,5.73
2022-12-24T20:53:51.651Z,4.20
2022-12-24T20:56:19.695Z,4.10
2022-12-24T20:58:47.821Z,3.80
2022-12-24T21:01:18.538Z,5.37
2022-12-24T21:03:48.165Z,3.50
2022-12-24T21:06:17.919Z,3.60
2022-12-24T21:08:46.351Z,3.93
2022-12-24T21:11:28.163Z,4.10
2022-12-24T21:13:56.029Z,3.37
2022-12-24T21:16:23.986Z,3.07
2022-12-24T21:18:53.302Z,3.00
2022-12-24T21:21:21.211Z,3.30
2022-12-24T21:23:49.086Z,2.97
2022-12-24T21:26:16.879Z,3.63
2022-12-24T21:28:45.524Z,3.47
2022-12-24T21:31:15.208Z,3.07
2022-12-24T21:33:43.840Z,3.60
2022-12-24T21:36:14.966Z,3.40
2022-12-24T21:38:43.641Z,2.70
2022-12-24T21:41:15.684Z,3.37
2022-12-24T21:43:44.468Z,3.30
2022-12-24T21:46:14.815Z,4.07
2022-12-24T21:49:00.365Z,4.17
2022-12-24T21:51:29.791Z,4.80
2022-12-24T21:54:16.223Z,4.43
2022-12-24T21:57:01.992Z,3.97
2022-12-24T21:59:30.110Z,3.37
2022-12-24T22:01:58.683Z,3.80
2022-12-24T22:04:26.839Z,3.23
2022-12-24T22:07:13.404Z,4.33
2022-12-24T22:09:59.145Z,4.03
2022-12-24T22:12:30.892Z,4.17
2022-12-24T22:14:58.861Z,3.50
2022-12-24T22:17:27.398Z,3.47
2022-12-24T22:19:55.589Z,4.90
2022-12-24T22:22:25.313Z,8.13
2022-12-24T22:24:53.172Z,6.47
2022-12-24T22:27:21.022Z,5.00
2022-12-24T22:29:48.836Z,4.50
2022-12-24T22:32:16.646Z,4.87
2022-12-24T22:34:44.879Z,4.13
2022-12-24T22:37:13.148Z,4.47
2022-12-24T22:39:42.415Z,3.97
2022-12-24T22:42:10.365Z,3.90
2022-12-24T22:44:38.244Z,3.70
2022-12-24T22:47:06.248Z,3.53
2022-12-24T22:49:36.042Z,2.90
2022-12-24T22:52:04.401Z,2.70
2022-12-24T22:54:32.959Z,2.50
2022-12-24T22:57:02.322Z,2.50
2022-12-24T22:59:30.167Z,2.53
2022-12-24T23:01:58.234Z,2.50
2022-12-24T23:04:27.066Z,2.20
2022-12-24T23:06:55.032Z,2.17
2022-12-24T23:09:22.989Z,2.10
2022-12-24T23:11:50.960Z,2.73
2022-12-24T23:14:39.023Z,1.80
2022-12-24T23:17:07.320Z,1.80
2022-12-24T23:19:35.894Z,1.50
2022-12-24T23:22:04.865Z,1.70
2022-12-24T23:24:33.300Z,1.50
2022-12-24T23:27:02.435Z,1.40
2022-12-24T23:29:33.147Z,1.77
2022-12-24T23:32:01.376Z,1.80
2022-12-24T23:34:29.200Z,1.30
2022-12-24T23:36:57.089Z,1.70
2022-12-24T23:39:25.120Z,1.50
2022-12-24T23:41:52.985Z,1.97
2022-12-24T23:44:24.104Z,1.87
2022-12-24T23:46:56.038Z,1.60
2022-12-24T23:49:23.894Z,1.77
2022-12-24T23:51:51.765Z,1.70
2022-12-24T23:54:19.632Z,1.20
2022-12-24T23:56:47.516Z,1.80
2022-12-24T23:59:15.346Z,1.57
